Time;durP1;ratioP1;P1;durP2;ratioP2;P2;SDS_P1;SDS_P2;PMS_P1;PMS_P2;Temp;Humidity;BMP_temperature;BMP_pressure;BME280_temperature;BME280_humidity;BME280_pressure;Samples;Min_cycle;Max_cycle;Signal;HPM_P1;HPM_P2
2021/05/10 00:02:24;;;;;;;3.45;1.10;;;;;;;21.60;37.04;98874.78;5014798;28;20054;-68
2021/05/10 00:04:52;;;;;;;3.50;1.10;;;;;;;21.61;37.09;98893.41;5014231;28;20065;-67
2021/05/10 00:07:19;;;;;;;4.07;1.20;;;;;;;21.62;37.24;98895.00;5013752;28;20053;-67
2021/05/10 00:09:46;;;;;;;3.75;1.30;;;;;;;21.63;37.20;98890.94;5015270;28;20057;-67
2021/05/10 00:12:13;;;;;;;3.05;1.10;;;;;;;21.59;37.61;98893.03;5014014;28;20057;-67
2021/05/10 00:14:42;;;;;;;3.45;1.10;;;;;;;21.54;37.98;98885.78;5014958;28;20496;-67
2021/05/10 00:17:09;;;;;;;2.13;1.13;;;;;;;21.56;37.62;98897.50;5011841;28;20061;-67
2021/05/10 00:19:36;;;;;;;4.13;1.30;;;;;;;21.55;37.07;98884.56;5014363;28;20061;-68
2021/05/10 00:22:04;;;;;;;3.40;1.33;;;;;;;21.58;37.47;98891.41;5013753;28;20050;-68
2021/05/10 00:24:31;;;;;;;3.78;1.35;;;;;;;21.63;37.35;98890.94;5013826;28;20487;-68
2021/05/10 00:26:57;;;;;;;4.28;1.10;;;;;;;21.67;36.89;98894.50;5014087;28;20049;-68
2021/05/10 00:29:24;;;;;;;2.63;1.30;;;;;;;21.67;37.22;98897.34;5014421;28;20057;-68
2021/05/10 00:31:51;;;;;;;6.38;1.30;;;;;;;21.71;37.09;98894.44;5013496;28;20061;-68
2021/05/10 00:34:18;;;;;;;3.55;1.38;;;;;;;21.73;37.23;98881.44;5015183;28;20049;-68
2021/05/10 00:36:45;;;;;;;3.85;1.50;;;;;;;21.76;36.92;98891.94;5013673;28;20065;-68
2021/05/10 00:39:13;;;;;;;5.57;2.03;;;;;;;21.77;37.07;98878.56;5014353;28;20069;-68
2021/05/10 00:41:40;;;;;;;2.17;1.20;;;;;;;21.77;36.95;98887.88;5013217;28;20052;-68
2021/05/10 00:44:07;;;;;;;3.75;1.30;;;;;;;21.78;37.27;98886.66;5012020;28;20058;-68
2021/05/10 00:46:35;;;;;;;2.13;1.17;;;;;;;21.76;37.12;98880.59;5008037;28;20061;-68
2021/05/10 00:49:03;;;;;;;3.30;1.10;;;;;;;21.72;37.29;98884.72;5013527;28;20080;-68
2021/05/10 00:51:29;;;;;;;2.65;1.30;;;;;;;21.74;37.47;98885.09;5014393;28;20057;-68
2021/05/10 00:53:56;;;;;;;3.65;1.40;;;;;;;21.76;37.29;98896.81;5013569;28;20061;-68
2021/05/10 00:56:24;;;;;;;2.25;1.13;;;;;;;21.75;37.10;98898.03;5013792;28;20149;-68
2021/05/10 00:58:51;;;;;;;3.72;1.30;;;;;;;21.75;37.18;98893.16;5013616;28;20410;-68
2021/05/10 01:01:18;;;;;;;4.32;1.70;;;;;;;21.74;37.07;98896.44;5012128;28;20042;-68
2021/05/10 01:03:48;;;;;;;2.28;1.20;;;;;;;21.75;36.81;98896.00;5012627;28;20065;-68
2021/05/10 01:06:15;;;;;;;3.35;1.40;;;;;;;21.76;37.38;98900.44;5013378;28;20054;-68
2021/05/10 01:08:42;;;;;;;3.38;1.30;;;;;;;21.73;36.91;98883.50;5013454;28;20053;-67
2021/05/10 01:11:09;;;;;;;3.00;1.50;;;;;;;21.69;37.11;98884.38;5013464;28;20056;-68
2021/05/10 01:13:37;;;;;;;3.30;1.20;;;;;;;21.69;37.14;98880.69;5013179;28;20054;-68
2021/05/10 01:16:04;;;;;;;3.58;1.15;;;;;;;21.64;37.17;98876.31;5011861;28;20509;-68
2021/05/10 01:18:32;;;;;;;3.20;1.35;;;;;;;21.64;37.43;98892.53;5013417;28;20057;-67
2021/05/10 01:21:00;;;;;;;3.60;1.27;;;;;;;21.60;37.17;98889.75;5012720;28;20049;-67
2021/05/10 01:23:28;;;;;;;3.63;1.30;;;;;;;21.59;37.27;98873.19;5011325;28;20046;-68
2021/05/10 01:25:56;;;;;;;2.42;1.45;;;;;;;21.64;36.70;98869.88;5012841;28;20388;-68
2021/05/10 01:28:23;;;;;;;2.50;1.60;;;;;;;21.66;37.04;98867.41;5013057;28;20053;-68
2021/05/10 01:30:51;;;;;;;3.53;1.30;;;;;;;21.69;37.04;98860.88;5011428;28;20399;-68
2021/05/10 01:33:19;;;;;;;5.35;1.40;;;;;;;21.71;36.88;98846.28;4994195;28;20046;-68
2021/05/10 01:35:49;;;;;;;4.82;1.25;;;;;;;21.71;36.78;98846.28;5012377;28;20415;-68
2021/05/10 01:38:17;;;;;;;3.05;1.10;;;;;;;21.72;36.91;98845.84;5012989;28;20394;-68
2021/05/10 01:40:47;;;;;;;7.20;1.70;;;;;;;21.73;36.95;98853.09;5013507;28;20049;-68
2021/05/10 01:43:16;;;;;;;2.67;1.33;;;;;;;21.78;36.55;98855.47;5012211;28;20061;-68
2021/05/10 01:45:44;;;;;;;2.00;1.02;;;;;;;21.79;36.51;98847.75;5012888;28;20384;-68
2021/05/10 01:48:12;;;;;;;2.80;1.20;;;;;;;21.80;36.43;98855.84;5011227;28;20478;-68
2021/05/10 01:50:41;;;;;;;3.15;1.48;;;;;;;21.83;36.40;98851.34;5013374;28;20050;-68
2021/05/10 01:53:09;;;;;;;2.45;1.27;;;;;;;21.85;36.13;98860.22;5013355;28;20053;-68
2021/05/10 01:55:36;;;;;;;2.10;1.23;;;;;;;21.85;36.18;98849.66;5012539;28;20057;-68
2021/05/10 01:58:05;;;;;;;2.30;1.20;;;;;;;21.86;36.18;98851.28;5012167;28;20049;-68
2021/05/10 02:00:34;;;;;;;;;;;;;;;21.80;36.21;98843.72;5011179;28;20054;-68
2021/05/10 02:03:01;;;;;;;4.90;1.40;;;;;;;21.80;36.23;98853.00;5000533;28;19925;-68
2021/05/10 02:05:29;;;;;;;2.70;1.23;;;;;;;21.79;37.09;98847.75;5011722;28;20049;-68
2021/05/10 02:07:57;;;;;;;3.95;1.10;;;;;;;21.77;36.36;98839.69;5012918;28;20054;-68
2021/05/10 02:10:26;;;;;;;3.15;1.38;;;;;;;21.72;38.59;98837.34;5012814;28;20065;-68
2021/05/10 02:12:55;;;;;;;3.05;1.33;;;;;;;21.69;38.20;98826.84;5010828;28;20049;-68
2021/05/10 02:15:24;;;;;;;3.40;1.20;;;;;;;21.61;38.62;98825.41;5013339;28;20153;-68
2021/05/10 02:17:52;;;;;;;2.72;1.33;;;;;;;21.57;39.35;98830.31;5012285;28;20073;-68
2021/05/10 02:20:21;;;;;;;3.63;1.30;;;;;;;21.48;39.92;98823.16;5013069;28;20064;-68
2021/05/10 02:22:52;;;;;;;2.55;1.48;;;;;;;21.36;39.84;98829.41;5012746;28;20487;-68
2021/05/10 02:25:20;;;;;;;2.42;1.30;;;;;;;21.29;39.59;98835.16;5012356;28;20061;-68
2021/05/10 02:27:47;;;;;;;2.65;1.15;;;;;;;21.26;38.72;98825.47;5012574;28;20483;-68
2021/05/10 02:30:15;;;;;;;2.65;1.58;;;;;;;21.25;38.46;98831.56;5009629;28;20046;-68
2021/05/10 02:32:43;;;;;;;2.67;1.23;;;;;;;21.23;39.12;98834.03;5011586;28;20492;-68
2021/05/10 02:35:11;;;;;;;2.40;1.35;;;;;;;21.23;39.05;98836.84;5013108;28;20054;-68
2021/05/10 02:37:38;;;;;;;3.63;1.20;;;;;;;21.25;38.28;98821.06;5010108;28;20050;-68
2021/05/10 02:40:08;;;;;;;4.28;1.30;;;;;;;21.29;37.35;98816.16;5012311;28;20050;-68
2021/05/10 02:42:35;;;;;;;;;;;;;;;21.34;37.39;98820.53;5012161;28;20483;-68
2021/05/10 02:45:02;;;;;;;1.55;1.05;;;;;;;21.35;37.90;98819.28;5012559;28;19921;-68
2021/05/10 02:47:29;;;;;;;1.83;1.20;;;;;;;21.34;38.02;98822.56;5011320;28;20053;-68
2021/05/10 02:49:56;;;;;;;3.55;1.30;;;;;;;21.35;38.15;98816.44;5009661;28;20065;-68
2021/05/10 02:52:23;;;;;;;2.58;1.20;;;;;;;21.32;38.63;98806.00;5012500;28;20050;-68
2021/05/10 02:54:50;;;;;;;2.35;1.20;;;;;;;21.29;38.92;98812.50;5012547;28;20045;-68
2021/05/10 02:57:17;;;;;;;3.97;1.48;;;;;;;21.19;39.21;98819.16;5011972;28;20054;-68
2021/05/10 02:59:44;;;;;;;2.80;1.30;;;;;;;21.18;41.02;98815.50;5011750;28;20057;-68
2021/05/10 03:02:11;;;;;;;2.60;1.40;;;;;;;21.05;41.60;98809.63;5009955;28;20054;-68
2021/05/10 03:04:38;;;;;;;2.95;1.38;;;;;;;20.91;41.58;98809.81;5013050;28;20061;-68
2021/05/10 03:07:06;;;;;;;2.20;1.30;;;;;;;20.80;43.24;98817.66;5014336;28;20056;-68
2021/05/10 03:09:33;;;;;;;2.20;1.25;;;;;;;20.73;43.84;98817.75;5016806;28;20057;-68
2021/05/10 03:12:02;;;;;;;1.98;1.30;;;;;;;20.62;43.99;98821.53;5014890;28;20053;-68
2021/05/10 03:14:29;;;;;;;2.55;1.27;;;;;;;20.47;44.31;98829.34;5013721;28;20054;-68
2021/05/10 03:16:58;;;;;;;4.38;1.50;;;;;;;20.41;44.28;98831.03;5013798;28;20054;-68
2021/05/10 03:19:25;;;;;;;2.95;1.45;;;;;;;20.32;44.50;98832.75;5015385;28;20057;-68
2021/05/10 03:21:53;;;;;;;3.10;1.50;;;;;;;20.21;45.64;98833.66;5015052;28;20069;-68
2021/05/10 03:24:25;;;;;;;2.72;1.33;;;;;;;20.12;45.95;98836.19;5015602;28;20054;-68
2021/05/10 03:26:52;;;;;;;4.60;1.60;;;;;;;20.04;46.38;98843.13;5014525;28;20053;-68
2021/05/10 03:29:19;;;;;;;3.35;1.58;;;;;;;20.00;46.19;98842.38;5015054;28;20057;-68
2021/05/10 03:31:46;;;;;;;4.47;1.40;;;;;;;19.92;46.22;98838.78;5013366;28;20398;-68
2021/05/10 03:34:13;;;;;;;5.63;1.67;;;;;;;19.80;46.16;98837.31;5015941;28;20053;-68
2021/05/10 03:36:40;;;;;;;2.38;1.40;;;;;;;19.79;46.27;98824.38;5015345;28;20053;-68
2021/05/10 03:39:07;;;;;;;2.65;1.23;;;;;;;19.72;46.42;98820.81;5014841;28;20444;-68
2021/05/10 03:41:34;;;;;;;3.97;1.20;;;;;;;19.65;46.72;98816.00;5014605;28;20418;-68
2021/05/10 03:44:01;;;;;;;1.70;1.10;;;;;;;19.60;46.21;98819.28;5015381;28;20502;-68
2021/05/10 03:46:28;;;;;;;2.55;1.23;;;;;;;19.54;45.65;98812.47;5014178;28;20056;-68
2021/05/10 03:48:55;;;;;;;2.90;1.23;;;;;;;19.50;45.52;98812.50;5015057;28;20054;-68
2021/05/10 03:51:22;;;;;;;3.47;1.55;;;;;;;19.48;46.08;98820.56;5016780;28;20065;-67
2021/05/10 03:53:49;;;;;;;4.75;1.40;;;;;;;19.43;46.72;98818.22;5015943;28;20057;-67
2021/05/10 03:56:16;;;;;;;3.00;2.15;;;;;;;19.38;46.80;98827.94;5014900;28;20054;-68
2021/05/10 03:58:46;;;;;;;5.18;2.10;;;;;;;19.32;46.14;98823.94;5015586;28;20054;-68
2021/05/10 04:01:13;;;;;;;3.85;1.73;;;;;;;19.28;46.27;98823.16;5013616;28;20057;-68
2021/05/10 04:03:44;;;;;;;3.95;1.58;;;;;;;19.26;45.45;98829.22;5013921;28;20056;-67
2021/05/10 04:06:33;;;;;;;2.63;1.35;;;;;;;19.25;45.21;98823.97;5015118;28;20049;-67
2021/05/10 04:14:29;;;;;;;2.55;1.40;;;;;;;19.26;44.62;98845.34;5015860;28;20057;-67
2021/05/10 04:16:56;;;;;;;3.20;1.40;;;;;;;19.28;44.87;98837.28;5011688;28;20410;-68
2021/05/10 04:19:23;;;;;;;3.33;1.50;;;;;;;19.30;44.60;98846.13;5014304;28;20061;-68
2021/05/10 04:21:50;;;;;;;3.15;1.50;;;;;;;19.34;44.24;98840.44;5014442;28;20057;-68
2021/05/10 04:24:17;;;;;;;3.38;1.70;;;;;;;19.41;43.95;98838.38;5014055;28;20050;-68
2021/05/10 04:26:44;;;;;;;3.55;1.55;;;;;;;19.47;44.11;98831.06;5014532;28;20054;-68
2021/05/10 04:29:11;;;;;;;3.60;1.38;;;;;;;19.59;43.30;98837.44;5012706;28;20054;-68
2021/05/10 04:31:38;;;;;;;3.53;1.35;;;;;;;19.70;43.25;98860.78;5006303;28;20053;-68
2021/05/10 04:34:05;;;;;;;2.65;1.20;;;;;;;19.81;42.95;98872.81;5004141;28;20049;-68
2021/05/10 04:36:32;;;;;;;3.03;1.35;;;;;;;19.88;42.77;98871.94;5005374;28;20064;-68
2021/05/10 04:38:59;;;;;;;2.63;1.48;;;;;;;20.01;42.53;98877.88;5007503;28;20058;-68
2021/05/10 04:41:26;;;;;;;2.20;1.40;;;;;;;20.14;42.14;98850.72;5006602;28;20483;-68
2021/05/10 04:43:53;;;;;;;2.65;1.30;;;;;;;20.25;41.86;98867.56;5008906;28;20049;-68
2021/05/10 04:46:20;;;;;;;2.90;1.60;;;;;;;20.37;41.18;98871.88;5008139;28;20056;-68
2021/05/10 04:48:50;;;;;;;3.28;1.45;;;;;;;20.52;41.28;98881.03;5009310;28;20054;-67
2021/05/10 04:51:17;;;;;;;3.35;1.38;;;;;;;20.66;40.75;98878.88;5006600;28;20057;-67
2021/05/10 04:53:44;;;;;;;2.17;1.30;;;;;;;20.79;40.15;98892.44;5007463;28;20050;-67
2021/05/10 04:56:11;;;;;;;3.00;1.42;;;;;;;20.90;40.16;98900.81;5008150;28;20064;-67
2021/05/10 04:58:38;;;;;;;2.42;1.50;;;;;;;21.04;39.72;98907.09;5010028;28;20491;-67
2021/05/10 05:01:05;;;;;;;6.47;1.75;;;;;;;21.15;39.38;98912.63;5013232;28;20129;-67
2021/05/10 05:03:32;;;;;;;3.15;1.30;;;;;;;21.14;39.94;98915.88;5006010;28;20057;-67
2021/05/10 05:06:00;;;;;;;3.22;1.40;;;;;;;21.23;39.52;98928.31;5011111;28;20418;-67
2021/05/10 05:08:26;;;;;;;3.38;1.38;;;;;;;21.32;39.27;98938.31;5011770;28;20065;-67
2021/05/10 05:10:53;;;;;;;2.20;1.30;;;;;;;21.36;39.42;98933.41;5008183;28;20057;-67
2021/05/10 05:13:22;;;;;;;2.03;1.33;;;;;;;21.44;39.67;98941.41;5004481;28;20065;-67
2021/05/10 05:15:49;;;;;;;2.88;1.30;;;;;;;21.44;39.62;98938.56;5009597;28;20062;-67
2021/05/10 05:18:16;;;;;;;3.45;1.70;;;;;;;21.53;39.54;98940.06;5005463;28;20509;-67
2021/05/10 05:20:43;;;;;;;2.20;1.15;;;;;;;21.64;39.07;98937.88;5005260;28;20046;-67
2021/05/10 05:23:21;;;;;;;2.95;1.25;;;;;;;21.78;39.07;98954.66;5006663;28;20050;-67
2021/05/10 05:25:56;;;;;;;4.30;1.27;;;;;;;21.91;38.64;98959.75;5005382;28;20050;-67
2021/05/10 05:28:23;;;;;;;2.13;1.15;;;;;;;22.04;38.45;98955.88;5006581;28;20386;-67
2021/05/10 05:30:50;;;;;;;2.30;1.30;;;;;;;22.06;38.43;98980.97;5006093;28;20049;-67
2021/05/10 05:33:17;;;;;;;2.70;1.25;;;;;;;22.10;38.53;98987.38;5006141;28;20046;-67
2021/05/10 05:35:44;;;;;;;4.55;1.42;;;;;;;22.09;39.54;98980.13;5006976;28;20049;-67
2021/05/10 05:38:12;;;;;;;1.80;1.30;;;;;;;21.96;40.07;99002.56;5011049;28;20568;-67
2021/05/10 05:40:41;;;;;;;4.85;1.20;;;;;;;21.77;41.55;99011.78;5011664;28;20057;-66
2021/05/10 05:43:08;;;;;;;2.92;1.15;;;;;;;21.59;41.31;99023.38;5011108;28;20113;-68
2021/05/10 05:45:36;;;;;;;2.72;1.55;;;;;;;21.48;42.34;98998.81;5011547;28;20050;-68
2021/05/10 05:48:04;;;;;;;2.30;0.88;;;;;;;21.42;41.94;98994.06;5008540;28;20506;-67
2021/05/10 05:50:31;;;;;;;2.90;1.40;;;;;;;21.43;42.11;98979.44;5014664;28;20046;-67
2021/05/10 05:52:58;;;;;;;2.15;1.10;;;;;;;21.36;41.86;98990.03;5011745;28;20057;-67
2021/05/10 05:55:25;;;;;;;4.80;1.33;;;;;;;21.39;41.74;99006.97;5012154;28;20521;-68
2021/05/10 05:57:57;;;;;;;4.60;1.45;;;;;;;21.42;41.50;98989.19;5012412;28;20337;-68
2021/05/10 06:00:25;;;;;;;2.60;1.48;;;;;;;21.55;41.15;99008.44;5011878;28;20431;-67
2021/05/10 06:02:51;;;;;;;2.70;1.35;;;;;;;21.67;41.48;98990.84;5009152;28;20073;-67
2021/05/10 06:05:21;;;;;;;3.92;1.38;;;;;;;21.62;41.13;98994.16;5012415;28;20053;-67
2021/05/10 06:07:49;;;;;;;1.88;1.00;;;;;;;21.60;41.16;99007.97;5012122;28;20058;-67
2021/05/10 06:10:19;;;;;;;3.85;1.42;;;;;;;21.66;41.19;98997.75;5012324;28;20072;-67
2021/05/10 06:12:48;;;;;;;2.28;1.05;;;;;;;21.83;40.83;99007.25;5012618;28;20060;-67
2021/05/10 06:15:17;;;;;;;2.80;1.77;;;;;;;22.07;40.17;99013.78;5011755;28;20041;-67
2021/05/10 06:17:44;;;;;;;6.32;1.85;;;;;;;22.32;39.81;99009.75;5012308;28;20049;-67
2021/05/10 06:20:13;;;;;;;2.35;1.40;;;;;;;22.43;39.29;99021.75;5013888;28;20054;-67
2021/05/10 06:22:41;;;;;;;3.63;1.33;;;;;;;22.50;39.77;99004.59;5011717;28;20073;-67
2021/05/10 06:25:11;;;;;;;4.20;1.60;;;;;;;22.57;40.24;99015.00;5010211;28;20532;-67
2021/05/10 06:27:38;;;;;;;1.73;1.10;;;;;;;22.46;39.69;99020.88;5013285;28;20061;-67
2021/05/10 06:30:07;;;;;;;2.72;1.30;;;;;;;22.35;40.23;99021.06;5014628;28;20061;-67
2021/05/10 06:32:38;;;;;;;;;;;;;;;22.13;40.58;99031.88;5013807;28;20054;-67
2021/05/10 06:35:06;;;;;;;5.05;1.50;;;;;;;22.20;40.70;99031.78;5012481;28;19926;-67
2021/05/10 06:37:36;;;;;;;4.45;1.50;;;;;;;22.22;40.48;99023.66;5013308;28;20045;-67
2021/05/10 06:40:05;;;;;;;2.38;1.27;;;;;;;22.31;40.26;99037.31;5013325;28;20065;-67
2021/05/10 06:42:32;;;;;;;2.88;1.30;;;;;;;22.33;40.72;99040.53;5017233;28;20057;-67
2021/05/10 06:44:59;;;;;;;3.17;1.30;;;;;;;22.19;41.29;99047.19;5018017;28;20404;-67
2021/05/10 06:47:26;;;;;;;4.10;1.30;;;;;;;22.24;40.77;99046.75;5016471;28;20053;-67
2021/05/10 06:49:55;;;;;;;3.92;1.30;;;;;;;22.16;41.24;99048.06;5016937;28;20057;-67
2021/05/10 06:52:22;;;;;;;3.65;1.30;;;;;;;21.84;43.70;99046.50;5016460;28;20058;-48
2021/05/10 06:54:49;;;;;;;5.15;1.50;;;;;;;21.96;42.13;99049.97;5009423;28;20514;-68
2021/05/10 06:57:16;;;;;;;2.92;1.25;;;;;;;22.21;41.81;99060.97;5014158;28;20049;-69
2021/05/10 06:59:46;;;;;;;2.60;1.20;;;;;;;22.25;42.33;99047.56;5013802;28;20571;-69
2021/05/10 07:02:13;;;;;;;3.45;1.30;;;;;;;22.37;42.07;99049.00;5014482;28;20058;-63
2021/05/10 07:04:40;;;;;;;3.33;1.30;;;;;;;22.38;41.36;99033.56;5014456;28;20392;-71
2021/05/10 07:07:08;;;;;;;2.17;1.38;;;;;;;22.42;41.21;99020.94;5014842;28;20064;-69
2021/05/10 07:09:35;;;;;;;4.22;1.55;;;;;;;22.39;41.58;99040.88;5014011;28;20060;-69
2021/05/10 07:12:01;;;;;;;4.68;1.60;;;;;;;22.28;41.75;99027.66;5014358;28;20053;-69
2021/05/10 07:14:28;;;;;;;2.80;1.40;;;;;;;22.51;41.72;99040.25;5013380;28;20058;-69
2021/05/10 07:16:55;;;;;;;2.28;1.50;;;;;;;22.36;41.73;99027.53;5014636;28;20518;-68
2021/05/10 07:19:22;;;;;;;3.03;1.38;;;;;;;22.44;41.64;99026.19;5013735;28;20053;-68
2021/05/10 07:21:49;;;;;;;3.50;1.70;;;;;;;22.42;42.51;99017.28;5013799;28;20371;-68
2021/05/10 07:24:18;;;;;;;3.42;1.30;;;;;;;22.15;43.14;99023.75;5013915;28;20066;-68
2021/05/10 07:26:45;;;;;;;4.70;1.90;;;;;;;22.39;42.35;99006.81;5014021;28;20426;-68
2021/05/10 07:29:12;;;;;;;4.32;1.65;;;;;;;22.76;41.25;99014.25;5012556;28;20097;-69
2021/05/10 07:31:39;;;;;;;3.80;1.48;;;;;;;24.20;37.95;99020.66;5014176;28;20053;-68
2021/05/10 07:34:06;;;;;;;2.25;1.40;;;;;;;25.41;35.67;99009.38;5013353;28;20057;-69
2021/05/10 07:36:32;;;;;;;2.55;1.70;;;;;;;26.25;33.91;99015.00;5014364;28;20403;-69
2021/05/10 07:39:02;;;;;;;3.50;2.00;;;;;;;26.72;32.67;99006.47;5013880;28;20061;-67
2021/05/10 07:41:29;;;;;;;4.78;2.13;;;;;;;27.27;31.92;99014.75;5013496;28;20042;-67
2021/05/10 07:43:56;;;;;;;2.42;1.67;;;;;;;27.35;31.11;99015.31;5012785;28;20062;-67
2021/05/10 07:46:24;;;;;;;2.72;1.40;;;;;;;27.51;30.41;99031.47;5013133;28;20065;-67
2021/05/10 07:48:51;;;;;;;4.38;1.38;;;;;;;28.32;29.69;99031.59;5011819;28;20060;-67
2021/05/10 07:51:17;;;;;;;2.92;1.88;;;;;;;28.76;28.51;99022.06;5012884;28;20058;-68
2021/05/10 07:53:45;;;;;;;4.13;1.60;;;;;;;29.05;28.52;99021.59;5011594;28;20490;-68
2021/05/10 07:56:13;;;;;;;2.47;1.70;;;;;;;28.79;28.46;99055.47;5013356;28;20097;-68
2021/05/10 07:58:45;;;;;;;4.00;1.50;;;;;;;27.90;29.74;99032.84;5011516;28;20487;-69
2021/05/10 08:01:12;;;;;;;2.45;1.20;;;;;;;27.06;30.88;99050.59;5013613;28;20054;-69
2021/05/10 08:03:40;;;;;;;2.28;1.50;;;;;;;27.00;31.33;99029.59;5012530;28;20495;-69
2021/05/10 08:06:08;;;;;;;2.30;1.30;;;;;;;27.07;31.04;99037.94;5010840;28;20053;-69
2021/05/10 08:08:36;;;;;;;2.92;1.80;;;;;;;28.17;28.92;99054.28;5013227;28;20053;-68
2021/05/10 08:11:03;;;;;;;3.30;1.30;;;;;;;29.34;26.93;99035.50;5012439;28;20061;-68
2021/05/10 08:13:30;;;;;;;2.72;1.85;;;;;;;30.63;25.38;99040.88;5012176;28;20056;-69
2021/05/10 08:15:58;;;;;;;3.78;1.30;;;;;;;29.94;25.71;99031.09;5013317;28;20604;-69
2021/05/10 08:18:25;;;;;;;2.50;1.30;;;;;;;30.21;25.33;99047.44;5011489;28;20054;-69
2021/05/10 08:20:56;;;;;;;2.65;1.17;;;;;;;29.01;26.94;99050.41;5012843;28;20423;-68
2021/05/10 08:23:23;;;;;;;2.35;1.45;;;;;;;28.27;28.13;99055.13;5012982;28;20395;-68
2021/05/10 08:25:52;;;;;;;2.60;1.25;;;;;;;27.83;29.55;99080.97;5011039;28;20054;-68
2021/05/10 08:28:19;;;;;;;2.92;1.00;;;;;;;27.03;30.29;99085.84;5013124;28;20054;-68
2021/05/10 08:30:47;;;;;;;3.17;1.20;;;;;;;26.57;30.44;99079.63;5012750;28;20064;-68
2021/05/10 08:33:15;;;;;;;2.60;0.90;;;;;;;26.41;30.66;99102.56;5012101;28;20065;-70
2021/05/10 08:35:42;;;;;;;2.38;1.35;;;;;;;25.89;31.27;99115.97;5011796;28;20053;-68
2021/05/10 08:38:09;;;;;;;2.25;1.25;;;;;;;25.55;31.96;99090.84;5013889;28;20072;-69
2021/05/10 08:40:36;;;;;;;3.72;1.20;;;;;;;25.60;32.01;99101.69;5011784;28;20066;-69
2021/05/10 08:43:18;;;;;;;3.33;1.30;;;;;;;25.73;31.36;99106.19;5010077;28;20053;-69
2021/05/10 08:45:48;;;;;;;3.08;1.30;;;;;;;26.84;29.93;99096.28;4994002;28;20058;-69
2021/05/10 08:48:16;;;;;;;2.90;1.15;;;;;;;27.13;29.90;99093.25;5009680;28;20061;-69
2021/05/10 08:50:43;;;;;;;1.88;1.05;;;;;;;26.52;30.72;99120.16;5017805;28;20394;-69
2021/05/10 08:53:12;;;;;;;3.80;1.30;;;;;;;26.85;30.61;99088.50;5031424;28;20057;-69
2021/05/10 08:55:40;;;;;;;4.45;1.55;;;;;;;28.68;27.49;99105.44;5010424;28;20050;-69
2021/05/10 08:58:08;;;;;;;2.17;1.63;;;;;;;30.82;24.54;99093.31;5012976;28;20070;-69
2021/05/10 09:00:50;;;;;;;2.13;1.50;;;;;;;32.07;23.03;99106.13;5009797;28;20053;-69
2021/05/10 09:03:18;;;;;;;3.53;1.38;;;;;;;32.51;22.14;99105.31;5011296;28;20057;-70
2021/05/10 09:05:47;;;;;;;4.72;1.40;;;;;;;33.54;20.90;99146.69;5011811;28;20065;-70
2021/05/10 09:08:14;;;;;;;3.90;1.40;;;;;;;33.31;21.21;99110.97;5012686;28;20057;-70
2021/05/10 09:10:42;;;;;;;4.25;1.25;;;;;;;30.95;23.91;99101.72;5011796;28;20046;-69
2021/05/10 09:13:09;;;;;;;2.00;1.75;;;;;;;32.63;22.23;99106.28;5011079;28;20050;-70
2021/05/10 09:15:37;;;;;;;4.28;1.35;;;;;;;30.97;24.74;99130.78;5012553;28;20049;-69
2021/05/10 09:18:06;;;;;;;2.87;1.07;;;;;;;29.48;25.99;99152.47;5012439;28;20064;-70
2021/05/10 09:20:34;;;;;;;;;;;;;;;28.05;28.26;99164.75;5012409;28;20065;-69
2021/05/10 09:23:02;;;;;;;2.10;1.10;;;;;;;26.65;31.00;99175.25;5011529;28;19921;-69
2021/05/10 09:25:31;;;;;;;3.72;1.08;;;;;;;25.78;32.88;99175.34;5008607;28;20065;-69
2021/05/10 09:28:13;;;;;;;2.55;1.27;;;;;;;25.26;33.89;99171.44;5011496;28;20411;-69
2021/05/10 09:30:40;;;;;;;4.00;1.20;;;;;;;24.88;34.85;99189.88;5011769;28;20061;-69
2021/05/10 09:33:15;;;;;;;2.97;1.27;;;;;;;24.40;35.22;99194.19;5012229;28;20054;-69
2021/05/10 09:35:46;;;;;;;5.65;1.10;;;;;;;24.13;35.89;99202.09;5011807;28;20054;-68
2021/05/10 09:38:12;;;;;;;2.28;1.02;;;;;;;23.58;36.61;99212.88;5011526;28;20057;-68
2021/05/10 09:40:45;;;;;;;1.38;0.90;;;;;;;23.22;37.28;99196.47;5011739;28;20049;-68
2021/05/10 09:43:14;;;;;;;3.67;1.00;;;;;;;23.11;37.70;99205.16;5012887;28;20050;-68
2021/05/10 09:45:45;;;;;;;1.67;0.83;;;;;;;23.07;37.86;99212.94;5010905;28;20054;-69
2021/05/10 09:48:21;;;;;;;4.70;1.00;;;;;;;23.05;38.04;99235.28;5012705;28;20065;-68
2021/05/10 09:50:53;;;;;;;3.15;1.08;;;;;;;23.20;37.41;99215.97;5001295;28;20050;-68
2021/05/10 09:53:40;;;;;;;3.15;0.93;;;;;;;23.57;36.95;99228.34;5012175;28;20050;-69
2021/05/10 09:56:09;;;;;;;3.20;0.98;;;;;;;23.71;36.02;99236.59;5011024;28;20089;-68
2021/05/10 09:58:43;;;;;;;3.55;1.00;;;;;;;23.75;36.54;99245.88;5008630;28;20495;-68
2021/05/10 10:01:11;;;;;;;2.88;0.90;;;;;;;24.16;35.07;99263.81;5010494;28;20072;-68
2021/05/10 10:03:40;;;;;;;1.80;1.10;;;;;;;24.19;35.15;99288.53;5010551;28;20057;-68
2021/05/10 10:06:11;;;;;;;2.03;0.70;;;;;;;23.87;35.08;99290.75;5009724;28;20057;-67
2021/05/10 10:08:40;;;;;;;3.30;1.20;;;;;;;23.69;35.14;99298.78;5011118;28;20068;-67
2021/05/10 10:11:09;;;;;;;1.23;0.60;;;;;;;23.97;35.01;99285.31;5011509;28;20049;-67
2021/05/10 10:13:36;;;;;;;2.22;0.93;;;;;;;25.01;33.40;99274.59;5009882;28;20050;-67
2021/05/10 10:16:05;;;;;;;1.95;0.98;;;;;;;25.57;32.20;99282.25;5008292;28;20058;-69
2021/05/10 10:18:32;;;;;;;1.13;0.90;;;;;;;26.02;31.77;99264.41;5010719;28;20054;-69
2021/05/10 10:21:00;;;;;;;2.03;0.75;;;;;;;26.23;30.87;99272.34;5011562;28;20396;-69
2021/05/10 10:23:28;;;;;;;1.85;0.70;;;;;;;26.08;30.75;99282.53;5010717;28;20050;-69
2021/05/10 10:25:58;;;;;;;3.13;0.80;;;;;;;25.79;31.15;99289.00;5011729;28;20077;-69
2021/05/10 10:28:26;;;;;;;2.13;0.70;;;;;;;26.06;30.79;99299.31;5011578;28;20058;-69
2021/05/10 10:31:01;;;;;;;1.35;0.70;;;;;;;26.03;30.73;99291.66;5011640;28;20058;-68
2021/05/10 10:33:34;;;;;;;1.40;0.73;;;;;;;26.48;30.15;99307.94;5011061;28;20061;-69
2021/05/10 10:36:02;;;;;;;2.03;0.70;;;;;;;26.22;30.47;99299.28;5011688;28;20053;-69
2021/05/10 10:38:32;;;;;;;1.42;0.55;;;;;;;25.54;31.47;99300.28;5010618;28;20069;-69
2021/05/10 10:41:16;;;;;;;2.13;0.70;;;;;;;25.23;32.07;99307.09;5010490;28;20058;-69
2021/05/10 10:43:43;;;;;;;2.92;0.82;;;;;;;25.34;32.20;99297.50;5010787;28;20064;-68
2021/05/10 10:46:25;;;;;;;2.72;1.08;;;;;;;25.42;31.66;99313.97;5011651;28;20050;-68
2021/05/10 10:48:55;;;;;;;0.88;0.60;;;;;;;25.19;31.83;99309.19;4997973;28;20061;-67
2021/05/10 10:51:22;;;;;;;1.55;0.80;;;;;;;25.20;32.10;99315.69;5021351;28;20057;-68
2021/05/10 10:53:54;;;;;;;4.50;0.80;;;;;;;24.88;32.95;99314.38;5027478;28;20050;-68
2021/05/10 10:56:49;;;;;;;2.15;0.85;;;;;;;24.51;33.14;99310.72;5011822;28;20061;-70
2021/05/10 10:59:38;;;;;;;1.75;0.63;;;;;;;24.50;33.31;99320.47;5008376;28;20061;-68
2021/05/10 11:02:17;;;;;;;2.08;0.80;;;;;;;24.66;33.53;99316.91;5010613;28;20057;-67
2021/05/10 11:04:46;;;;;;;;;;;;;;;25.06;32.92;99303.38;5011077;28;20056;-67
2021/05/10 11:07:13;;;;;;;2.17;0.80;;;;;;;24.95;33.46;99294.28;5008301;28;19921;-67
2021/05/10 11:09:52;;;;;;;2.28;0.85;;;;;;;24.68;33.39;99300.19;5008152;28;20053;-68
2021/05/10 11:12:47;;;;;;;2.13;0.60;;;;;;;24.45;34.17;99306.72;5009178;28;20054;-68
2021/05/10 11:15:35;;;;;;;1.35;0.73;;;;;;;24.31;34.39;99328.53;5010118;28;20526;-67
2021/05/10 11:18:03;;;;;;;3.08;0.60;;;;;;;23.93;34.89;99345.09;5010458;28;20053;-68
2021/05/10 11:20:37;;;;;;;1.35;0.68;;;;;;;23.59;35.52;99350.94;5011076;28;20050;-68
2021/05/10 11:23:32;;;;;;;2.50;0.75;;;;;;;23.27;36.14;99350.22;5009965;28;20065;-68
2021/05/10 11:26:03;;;;;;;1.55;0.65;;;;;;;23.01;36.92;99357.47;4992098;28;20706;-68
2021/05/10 11:28:47;;;;;;;1.27;0.57;;;;;;;22.98;36.74;99366.81;5007585;28;20061;-68
2021/05/10 11:31:17;;;;;;;2.08;0.70;;;;;;;22.89;37.12;99381.53;5014137;28;20050;-68
2021/05/10 11:34:10;;;;;;;1.50;0.75;;;;;;;23.07;37.19;99378.47;5014125;28;20049;-68
2021/05/10 11:36:50;;;;;;;1.50;0.70;;;;;;;23.49;36.50;99386.81;5013729;28;20061;-68
2021/05/10 11:39:24;;;;;;;1.00;0.60;;;;;;;23.82;35.58;99382.25;5013886;28;20386;-69
2021/05/10 11:41:59;;;;;;;1.38;0.90;;;;;;;24.81;34.10;99385.75;5012552;28;20073;-69
2021/05/10 11:44:29;;;;;;;1.88;1.02;;;;;;;26.63;30.26;99400.56;5011397;28;20042;-69
2021/05/10 11:47:01;;;;;;;1.50;0.60;;;;;;;26.34;30.40;99394.81;5013816;28;20045;-68
2021/05/10 11:49:30;;;;;;;0.80;0.60;;;;;;;25.37;32.58;99391.47;5010120;28;20054;-69